Shana Des Slops — FFZR — position and weather

sailwx.info

Track history (hours):
 
Tides and Currents Weather Stations Pressure Air Temp Water Temp Dewpoint Dewpoint Depression Visibility Wind Speed Wind Dir Waves Ship Positions

Shana Des Slops

Last reported at 2014-Nov-27 23:33 UTC. Time now 2014-Nov-28 00:23 UTC.
Position N 43°24' E 004°56'.

Length 47 m; draft 3.2 m.

Type: Tanker. MMSI: 228003800.

Date/timePositionNaut miles runAvg speedWind from/ knotsBaromVisibWave heightAir tempDewpointWater temp
2014-Nov-27 23:33N 43°24' E 004°56'2 2.0
2014-Nov-27 22:32N 43°24' E 004°53'0 0.0
2014-Nov-27 21:33N 43°24' E 004°53'0 0.0
2014-Nov-27 20:25N 43°24' E 004°53'0 0.0
2014-Nov-27 19:31N 43°24' E 004°53'1 0.6
2014-Nov-27 18:33N 43°24' E 004°53'2 2.3
2014-Nov-27 17:29N 43°25' E 004°50'0 0.0
2014-Nov-27 16:29N 43°25' E 004°50'0 0.0
2014-Nov-27 15:32N 43°25' E 004°50'0 0.1
2014-Nov-27 14:34N 43°25' E 004°50'4 4.3
2014-Nov-27 13:34N 43°24' E 004°56'3 3.0
2014-Nov-27 12:33N 43°24' E 004°60'0 0.0
2014-Nov-27 11:33N 43°24' E 004°60'0 0.0
2014-Nov-27 10:33N 43°24' E 004°60'0 0.0
2014-Nov-27 09:33N 43°24' E 004°60'0 0.0
2014-Nov-27 08:33N 43°24' E 004°60'0 0.0
2014-Nov-27 07:33N 43°24' E 004°60'0 0.0
2014-Nov-27 06:33N 43°24' E 004°60'0 0.0
2014-Nov-27 05:33N 43°24' E 004°60'0 0.0
2014-Nov-27 04:33N 43°24' E 004°60'0 0.0
2014-Nov-27 03:33N 43°24' E 004°60'0 0.0
2014-Nov-27 02:33N 43°24' E 004°60'0 0.0
2014-Nov-27 01:33N 43°24' E 004°60'0 0.0
2014-Nov-27 00:33N 43°24' E 004°60'0 0.0
2014-Nov-26 23:34N 43°24' E 004°60'0 0.0
2014-Nov-26 22:31N 43°24' E 004°60'0 0.0
2014-Nov-26 21:31N 43°24' E 004°60'0 0.0
2014-Nov-26 20:31N 43°24' E 004°60'0 0.0
2014-Nov-26 19:31N 43°24' E 004°60'0 0.0
2014-Nov-26 18:31N 43°24' E 004°60'0 0.0
2014-Nov-26 17:34N 43°24' E 004°60'0 0.0
2014-Nov-26 16:31N 43°24' E 004°60'0 0.0
2014-Nov-26 15:34N 43°24' E 004°60'0 0.0
2014-Nov-26 14:34N 43°24' E 004°60'5 5.5
2014-Nov-26 13:33N 43°24' E 004°52'2 1.9
2014-Nov-26 12:33N 43°25' E 004°50'7 7.0
2014-Nov-26 11:34N 43°24' E 004°60'0 0.0
2014-Nov-26 10:31N 43°24' E 004°60'0 0.0
2014-Nov-26 09:31N 43°24' E 004°60'0 0.0
2014-Nov-26 08:31N 43°24' E 004°60'0 0.0
2014-Nov-26 07:31N 43°24' E 004°60'0 0.0
2014-Nov-26 06:31N 43°24' E 004°60'0 0.0
2014-Nov-26 05:31N 43°24' E 004°60'0 0.0
2014-Nov-26 04:31N 43°24' E 004°60'0 0.0
2014-Nov-26 03:31N 43°24' E 004°60'0 0.0
2014-Nov-26 02:31N 43°24' E 004°60'0 0.0
2014-Nov-26 01:31N 43°24' E 004°60'0 0.0
2014-Nov-26 00:31N 43°24' E 004°60'0 0.0
2014-Nov-25 23:28N 43°24' E 004°60'0 0.0
2014-Nov-25 22:31N 43°24' E 004°60'0 0.0
2014-Nov-25 21:31N 43°24' E 004°60'0 0.0
2014-Nov-25 20:31N 43°24' E 004°60'0 0.0
2014-Nov-25 19:31N 43°24' E 004°60'0 0.0
2014-Nov-25 18:31N 43°24' E 004°60'0 0.0
2014-Nov-25 17:31N 43°24' E 004°60'0 0.0
2014-Nov-25 16:31N 43°24' E 004°60'5 5.1
2014-Nov-25 15:34N 43°24' E 004°53'2 1.7
2014-Nov-25 14:28N 43°25' E 004°51'0 0.0
2014-Nov-25 13:28N 43°25' E 004°51'0 0.0
2014-Nov-25 12:33N 43°25' E 004°51'7 6.6
2014-Nov-25 11:33N 43°24' E 004°60'0 0.0
2014-Nov-25 10:31N 43°24' E 004°60'0 0.0
2014-Nov-25 09:31N 43°24' E 004°60'0 0.0
2014-Nov-25 08:31N 43°24' E 004°60'0 0.0
2014-Nov-25 07:31N 43°24' E 004°60'0 0.0
2014-Nov-25 06:31N 43°24' E 004°60'0 0.0
2014-Nov-25 05:31N 43°24' E 004°60'0 0.0
2014-Nov-25 04:31N 43°24' E 004°60'0 0.0
2014-Nov-25 03:31N 43°24' E 004°60'0 0.0
2014-Nov-25 02:31N 43°24' E 004°60'0 0.0
2014-Nov-25 01:31N 43°24' E 004°60'0 0.0
2014-Nov-25 00:31N 43°24' E 004°60'0 0.0
2014-Nov-24 23:31N 43°24' E 004°60'0 0.0
2014-Nov-24 22:31N 43°24' E 004°60'0 0.0
2014-Nov-24 21:31N 43°24' E 004°60'0 0.0
2014-Nov-24 20:31N 43°24' E 004°60'0 0.0
2014-Nov-24 19:31N 43°24' E 004°60'0 0.0
2014-Nov-24 18:31N 43°24' E 004°60'0 0.0
2014-Nov-24 17:31N 43°24' E 004°60'0 0.0
2014-Nov-24 16:31N 43°24' E 004°60'0 0.0
2014-Nov-24 15:31N 43°24' E 004°60'0 0.0
2014-Nov-24 14:31N 43°24' E 004°60'0 0.0
2014-Nov-24 13:31N 43°24' E 004°60'0 0.0
2014-Nov-24 12:31N 43°24' E 004°60'0 0.0
2014-Nov-24 11:31N 43°24' E 004°60'0 0.0
2014-Nov-24 10:31N 43°24' E 004°60'0 0.0
2014-Nov-24 09:31N 43°24' E 004°60'0 0.0
2014-Nov-24 08:31N 43°24' E 004°60'0 0.0
2014-Nov-24 07:31N 43°24' E 004°60'0 0.0
2014-Nov-24 06:31N 43°24' E 004°60'0 0.0
2014-Nov-24 05:31N 43°24' E 004°60'0 0.0
2014-Nov-24 04:31N 43°24' E 004°60'0 0.0
2014-Nov-24 03:31N 43°24' E 004°60'0 0.0
2014-Nov-24 02:31N 43°24' E 004°60'0 0.0
2014-Nov-24 01:31N 43°24' E 004°60'0 0.0
2014-Nov-24 00:31N 43°24' E 004°60'0 0.0
2014-Nov-23 23:31N 43°24' E 004°60'0 0.0
2014-Nov-23 22:31N 43°24' E 004°60'0 0.5
2014-Nov-23 21:33N 43°24' E 004°59'4 4.1
2014-Nov-23 20:31N 43°25' E 004°53'0 0.0
2014-Nov-23 19:31N 43°25' E 004°53'0 0.0
2014-Nov-23 18:31N 43°25' E 004°53'0 0.0
2014-Nov-23 17:31N 43°25' E 004°53'0 0.0
2014-Nov-23 16:31N 43°25' E 004°53'0 0.0
2014-Nov-23 15:31N 43°25' E 004°53'0 0.0
2014-Nov-23 14:32N 43°25' E 004°53'0 0.0
2014-Nov-23 13:32N 43°25' E 004°53'3 2.8
2014-Nov-23 12:34N 43°24' E 004°57'2 2.3
2014-Nov-23 11:33N 43°24' E 004°60'0 0.0
2014-Nov-23 10:33N 43°24' E 004°60'0 0.0
2014-Nov-23 09:33N 43°24' E 004°60'0 0.0
2014-Nov-23 08:33N 43°24' E 004°60'0 0.0
2014-Nov-23 07:33N 43°24' E 004°60'0 0.0
2014-Nov-23 06:33N 43°24' E 004°60'0 0.0
2014-Nov-23 05:33N 43°24' E 004°60'0 0.0
2014-Nov-23 04:33N 43°24' E 004°60'0 0.0
2014-Nov-23 03:32N 43°24' E 004°60'0 0.0
2014-Nov-23 02:32N 43°24' E 004°60'0 0.0
2014-Nov-23 01:32N 43°24' E 004°60'0 0.0
2014-Nov-23 00:32N 43°24' E 004°60'0 0.0
2014-Nov-22 23:32N 43°24' E 004°60'0 0.0
2014-Nov-22 22:32N 43°24' E 004°60'0 0.0
2014-Nov-22 21:29N 43°24' E 004°60'0 0.0
2014-Nov-22 20:32N 43°24' E 004°60'0 0.0
2014-Nov-22 19:32N 43°24' E 004°60'0 0.0
2014-Nov-22 18:29N 43°24' E 004°60'0 0.0
2014-Nov-22 17:29N 43°24' E 004°60'0 0.0
2014-Nov-22 16:32N 43°24' E 004°60'0 0.0
2014-Nov-22 15:32N 43°24' E 004°60'0 0.0
2014-Nov-22 14:32N 43°24' E 004°60'0 0.0
2014-Nov-22 13:32N 43°24' E 004°60'0 0.0
2014-Nov-22 12:32N 43°24' E 004°60'0 0.0
2014-Nov-22 11:32N 43°24' E 004°60'0 0.0
2014-Nov-22 10:32N 43°24' E 004°60'0 0.0
2014-Nov-22 09:32N 43°24' E 004°60'0 0.0
2014-Nov-22 08:32N 43°24' E 004°60'0 0.0
2014-Nov-22 07:32N 43°24' E 004°60'0 0.0
2014-Nov-22 06:32N 43°24' E 004°60'0 0.0
2014-Nov-22 05:32N 43°24' E 004°60'0 0.0
2014-Nov-22 04:32N 43°24' E 004°60'0 0.0
2014-Nov-22 03:32N 43°24' E 004°60'0 0.0
2014-Nov-22 02:32N 43°24' E 004°60'0 0.0
2014-Nov-22 01:32N 43°24' E 004°60'0 0.0
2014-Nov-22 00:32N 43°24' E 004°60'2 2.4
2014-Nov-21 23:34N 43°24' E 004°57'0 0.2
2014-Nov-21 22:32N 43°24' E 004°57'0 0.0
2014-Nov-21 21:32N 43°24' E 004°57'0 0.0
2014-Nov-21 20:32N 43°24' E 004°57'0 0.0
2014-Nov-21 19:32N 43°24' E 004°57'0 0.5
2014-Nov-21 18:33N 43°24' E 004°57'0 0.0
2014-Nov-21 17:33N 43°24' E 004°57'0 0.0
2014-Nov-21 16:33N 43°24' E 004°57'0 0.0
2014-Nov-21 15:33N 43°24' E 004°57'0 0.0
2014-Nov-21 14:33N 43°24' E 004°57'2 1.9
2014-Nov-21 13:32N 43°24' E 004°60'0 0.0
2014-Nov-21 12:32N 43°24' E 004°60'0 0.0
2014-Nov-21 11:32N 43°24' E 004°60'0 0.0
2014-Nov-21 10:32N 43°24' E 004°60'0 0.0
2014-Nov-21 09:32N 43°24' E 004°60'0 0.0
2014-Nov-21 08:32N 43°24' E 004°60'0 0.0
2014-Nov-21 07:32N 43°24' E 004°60'0 0.0
2014-Nov-21 06:32N 43°24' E 004°60'0 0.0
2014-Nov-21 05:32N 43°24' E 004°60'0 0.0
2014-Nov-21 04:32N 43°24' E 004°60'0 0.0
2014-Nov-21 03:32N 43°24' E 004°60'0 0.0
2014-Nov-21 02:32N 43°24' E 004°60'0 0.0
2014-Nov-21 01:32N 43°24' E 004°60'0 0.0
2014-Nov-21 00:32N 43°24' E 004°60'0 0.0
2014-Nov-20 23:32N 43°24' E 004°60'0 0.0
2014-Nov-20 22:32N 43°24' E 004°60'0 0.0
2014-Nov-20 21:32N 43°24' E 004°60'0 0.0
2014-Nov-20 20:32N 43°24' E 004°60'0 0.0
2014-Nov-20 19:32N 43°24' E 004°60'4 4.2
2014-Nov-20 18:34N 43°24' E 004°54'2 2.0
2014-Nov-20 17:29N 43°26' E 004°52'0 0.0
2014-Nov-20 16:29N 43°26' E 004°52'0 0.0
2014-Nov-20 15:29N 43°26' E 004°52'0 0.0
2014-Nov-20 14:20N 43°26' E 004°52'0 0.0
2014-Nov-20 13:33N 43°26' E 004°52'6 5.6
2014-Nov-20 12:33N 43°24' E 004°60'0 0.0
2014-Nov-20 11:31N 43°24' E 004°60'0 0.0
2014-Nov-20 10:31N 43°24' E 004°60'0 0.0
2014-Nov-20 09:31N 43°24' E 004°60'0 0.0
2014-Nov-20 08:31N 43°24' E 004°60'0 0.0
2014-Nov-20 07:31N 43°24' E 004°60'0 0.0
2014-Nov-20 06:31N 43°24' E 004°60'0 0.0
2014-Nov-20 05:31N 43°24' E 004°60'0 0.0
2014-Nov-20 04:31N 43°24' E 004°60'0 0.0
2014-Nov-20 03:31N 43°24' E 004°60'0 0.0
2014-Nov-20 02:31N 43°24' E 004°60'0 0.0
2014-Nov-20 01:31N 43°24' E 004°60'0 0.0
2014-Nov-20 00:31N 43°24' E 004°60'0 0.0
2014-Nov-19 23:33N 43°24' E 004°60'0 0.0
2014-Nov-19 22:33N 43°24' E 004°60'0 0.0
2014-Nov-19 21:33N 43°24' E 004°60'0 0.0
2014-Nov-19 20:33N 43°24' E 004°60'0 0.0
2014-Nov-19 19:33N 43°24' E 004°60'0 0.0
2014-Nov-19 18:33N 43°24' E 004°60'0 0.0
2014-Nov-19 17:33N 43°24' E 004°60'0 0.0
2014-Nov-19 16:33N 43°24' E 004°60'0 0.0
2014-Nov-19 15:33N 43°24' E 004°60'0 0.0
2014-Nov-19 14:33N 43°24' E 004°60'0 0.0
2014-Nov-19 13:33N 43°24' E 004°60'0 0.0
2014-Nov-19 12:33N 43°24' E 004°60'0 0.0
2014-Nov-19 11:33N 43°24' E 004°60'0 0.0
2014-Nov-19 10:33N 43°24' E 004°60'0 0.0
2014-Nov-19 09:33N 43°24' E 004°60'0 0.0
2014-Nov-19 08:30N 43°24' E 004°60'0 0.0
2014-Nov-19 07:33N 43°24' E 004°60'0 0.0
2014-Nov-19 06:33N 43°24' E 004°60'0 0.0
2014-Nov-19 05:33N 43°24' E 004°60'0 0.0
2014-Nov-19 04:33N 43°24' E 004°60'0 0.0
2014-Nov-19 03:33N 43°24' E 004°60'0 0.0
2014-Nov-19 02:33N 43°24' E 004°60'0 0.0
2014-Nov-19 01:33N 43°24' E 004°60'0 0.0
2014-Nov-19 00:33N 43°24' E 004°60'0 0.0
2014-Nov-18 23:33N 43°24' E 004°60'0 0.0
2014-Nov-18 22:33N 43°24' E 004°60'0 0.0
2014-Nov-18 21:33N 43°24' E 004°60'1 0.5
2014-Nov-18 20:34N 43°24' E 004°59'2 1.9
2014-Nov-18 19:33N 43°24' E 004°57'0 0.0
2014-Nov-18 18:30N 43°24' E 004°57'2 2.5
2014-Nov-18 17:33N 43°22' E 004°56'0 0.0
2014-Nov-18 16:33N 43°22' E 004°56'0 0.0
2014-Nov-18 15:33N 43°22' E 004°56'0 0.0
2014-Nov-18 14:33N 43°22' E 004°56'0 0.0
2014-Nov-18 13:34N 43°22' E 004°56'4 3.4
2014-Nov-18 12:31N 43°24' E 004°60'0 0.0
2014-Nov-18 11:28N 43°24' E 004°60'0 0.0
2014-Nov-18 10:31N 43°24' E 004°60'0 0.0
2014-Nov-18 09:31N 43°24' E 004°60'0 0.0
2014-Nov-18 08:31N 43°24' E 004°60'0 0.0
2014-Nov-18 07:32N 43°24' E 004°60'0 0.0
2014-Nov-18 06:32N 43°24' E 004°60'0 0.0
2014-Nov-18 05:32N 43°24' E 004°60'0 0.0
2014-Nov-18 04:33N 43°24' E 004°60'0 0.0
2014-Nov-18 03:33N 43°24' E 004°60'0 0.0
2014-Nov-18 02:33N 43°24' E 004°60'0 0.0
2014-Nov-18 01:33N 43°24' E 004°60'0 0.0
2014-Nov-18 00:33N 43°24' E 004°60'  
Track history (hours):
 
Tides and Currents Weather Stations Pressure Air Temp Water Temp Dewpoint Dewpoint Depression Visibility Wind Speed Wind Dir Waves Ship Positions

Shana Des Slops

Last reported at 2014-Nov-27 23:33 UTC. Time now 2014-Nov-28 00:23 UTC.
Position N 43°24' E 004°56'.

Length 47 m; draft 3.2 m.

Type: Tanker. MMSI: 228003800.

Date/timePositionNaut miles runAvg speedWind from/ knotsBaromVisibWave heightAir tempDewpointWater temp
2014-Nov-27 23:33N 43°24' E 004°56'2 2.0
2014-Nov-27 22:32N 43°24' E 004°53'0 0.0
2014-Nov-27 21:33N 43°24' E 004°53'0 0.0
2014-Nov-27 20:25N 43°24' E 004°53'0 0.0
2014-Nov-27 19:31N 43°24' E 004°53'1 0.6
2014-Nov-27 18:33N 43°24' E 004°53'2 2.3
2014-Nov-27 17:29N 43°25' E 004°50'0 0.0
2014-Nov-27 16:29N 43°25' E 004°50'0 0.0
2014-Nov-27 15:32N 43°25' E 004°50'0 0.1
2014-Nov-27 14:34N 43°25' E 004°50'4 4.3
2014-Nov-27 13:34N 43°24' E 004°56'3 3.0
2014-Nov-27 12:33N 43°24' E 004°60'0 0.0
2014-Nov-27 11:33N 43°24' E 004°60'0 0.0
2014-Nov-27 10:33N 43°24' E 004°60'0 0.0
2014-Nov-27 09:33N 43°24' E 004°60'0 0.0
2014-Nov-27 08:33N 43°24' E 004°60'0 0.0
2014-Nov-27 07:33N 43°24' E 004°60'0 0.0
2014-Nov-27 06:33N 43°24' E 004°60'0 0.0
2014-Nov-27 05:33N 43°24' E 004°60'0 0.0
2014-Nov-27 04:33N 43°24' E 004°60'0 0.0
2014-Nov-27 03:33N 43°24' E 004°60'0 0.0
2014-Nov-27 02:33N 43°24' E 004°60'0 0.0
2014-Nov-27 01:33N 43°24' E 004°60'0 0.0
2014-Nov-27 00:33N 43°24' E 004°60'0 0.0
2014-Nov-26 23:34N 43°24' E 004°60'0 0.0
2014-Nov-26 22:31N 43°24' E 004°60'0 0.0
2014-Nov-26 21:31N 43°24' E 004°60'0 0.0
2014-Nov-26 20:31N 43°24' E 004°60'0 0.0
2014-Nov-26 19:31N 43°24' E 004°60'0 0.0
2014-Nov-26 18:31N 43°24' E 004°60'0 0.0
2014-Nov-26 17:34N 43°24' E 004°60'0 0.0
2014-Nov-26 16:31N 43°24' E 004°60'0 0.0
2014-Nov-26 15:34N 43°24' E 004°60'0 0.0
2014-Nov-26 14:34N 43°24' E 004°60'5 5.5
2014-Nov-26 13:33N 43°24' E 004°52'2 1.9
2014-Nov-26 12:33N 43°25' E 004°50'7 7.0
2014-Nov-26 11:34N 43°24' E 004°60'0 0.0
2014-Nov-26 10:31N 43°24' E 004°60'0 0.0
2014-Nov-26 09:31N 43°24' E 004°60'0 0.0
2014-Nov-26 08:31N 43°24' E 004°60'0 0.0
2014-Nov-26 07:31N 43°24' E 004°60'0 0.0
2014-Nov-26 06:31N 43°24' E 004°60'0 0.0
2014-Nov-26 05:31N 43°24' E 004°60'0 0.0
2014-Nov-26 04:31N 43°24' E 004°60'0 0.0
2014-Nov-26 03:31N 43°24' E 004°60'0 0.0
2014-Nov-26 02:31N 43°24' E 004°60'0 0.0
2014-Nov-26 01:31N 43°24' E 004°60'0 0.0
2014-Nov-26 00:31N 43°24' E 004°60'0 0.0
2014-Nov-25 23:28N 43°24' E 004°60'0 0.0
2014-Nov-25 22:31N 43°24' E 004°60'0 0.0
2014-Nov-25 21:31N 43°24' E 004°60'0 0.0
2014-Nov-25 20:31N 43°24' E 004°60'0 0.0
2014-Nov-25 19:31N 43°24' E 004°60'0 0.0
2014-Nov-25 18:31N 43°24' E 004°60'0 0.0
2014-Nov-25 17:31N 43°24' E 004°60'0 0.0
2014-Nov-25 16:31N 43°24' E 004°60'5 5.1
2014-Nov-25 15:34N 43°24' E 004°53'2 1.7
2014-Nov-25 14:28N 43°25' E 004°51'0 0.0
2014-Nov-25 13:28N 43°25' E 004°51'0 0.0
2014-Nov-25 12:33N 43°25' E 004°51'7 6.6
2014-Nov-25 11:33N 43°24' E 004°60'0 0.0
2014-Nov-25 10:31N 43°24' E 004°60'0 0.0
2014-Nov-25 09:31N 43°24' E 004°60'0 0.0
2014-Nov-25 08:31N 43°24' E 004°60'0 0.0
2014-Nov-25 07:31N 43°24' E 004°60'0 0.0
2014-Nov-25 06:31N 43°24' E 004°60'0 0.0
2014-Nov-25 05:31N 43°24' E 004°60'0 0.0
2014-Nov-25 04:31N 43°24' E 004°60'0 0.0
2014-Nov-25 03:31N 43°24' E 004°60'0 0.0
2014-Nov-25 02:31N 43°24' E 004°60'0 0.0
2014-Nov-25 01:31N 43°24' E 004°60'0 0.0
2014-Nov-25 00:31N 43°24' E 004°60'0 0.0
2014-Nov-24 23:31N 43°24' E 004°60'0 0.0
2014-Nov-24 22:31N 43°24' E 004°60'0 0.0
2014-Nov-24 21:31N 43°24' E 004°60'0 0.0
2014-Nov-24 20:31N 43°24' E 004°60'0 0.0
2014-Nov-24 19:31N 43°24' E 004°60'0 0.0
2014-Nov-24 18:31N 43°24' E 004°60'0 0.0
2014-Nov-24 17:31N 43°24' E 004°60'0 0.0
2014-Nov-24 16:31N 43°24' E 004°60'0 0.0
2014-Nov-24 15:31N 43°24' E 004°60'0 0.0
2014-Nov-24 14:31N 43°24' E 004°60'0 0.0
2014-Nov-24 13:31N 43°24' E 004°60'0 0.0
2014-Nov-24 12:31N 43°24' E 004°60'0 0.0
2014-Nov-24 11:31N 43°24' E 004°60'0 0.0
2014-Nov-24 10:31N 43°24' E 004°60'0 0.0
2014-Nov-24 09:31N 43°24' E 004°60'0 0.0
2014-Nov-24 08:31N 43°24' E 004°60'0 0.0
2014-Nov-24 07:31N 43°24' E 004°60'0 0.0
2014-Nov-24 06:31N 43°24' E 004°60'0 0.0
2014-Nov-24 05:31N 43°24' E 004°60'0 0.0
2014-Nov-24 04:31N 43°24' E 004°60'0 0.0
2014-Nov-24 03:31N 43°24' E 004°60'0 0.0
2014-Nov-24 02:31N 43°24' E 004°60'0 0.0
2014-Nov-24 01:31N 43°24' E 004°60'0 0.0
2014-Nov-24 00:31N 43°24' E 004°60'0 0.0
2014-Nov-23 23:31N 43°24' E 004°60'0 0.0
2014-Nov-23 22:31N 43°24' E 004°60'0 0.5
2014-Nov-23 21:33N 43°24' E 004°59'4 4.1
2014-Nov-23 20:31N 43°25' E 004°53'0 0.0
2014-Nov-23 19:31N 43°25' E 004°53'0 0.0
2014-Nov-23 18:31N 43°25' E 004°53'0 0.0
2014-Nov-23 17:31N 43°25' E 004°53'0 0.0
2014-Nov-23 16:31N 43°25' E 004°53'0 0.0
2014-Nov-23 15:31N 43°25' E 004°53'0 0.0
2014-Nov-23 14:32N 43°25' E 004°53'0 0.0
2014-Nov-23 13:32N 43°25' E 004°53'3 2.8
2014-Nov-23 12:34N 43°24' E 004°57'2 2.3
2014-Nov-23 11:33N 43°24' E 004°60'0 0.0
2014-Nov-23 10:33N 43°24' E 004°60'0 0.0
2014-Nov-23 09:33N 43°24' E 004°60'0 0.0
2014-Nov-23 08:33N 43°24' E 004°60'0 0.0
2014-Nov-23 07:33N 43°24' E 004°60'0 0.0
2014-Nov-23 06:33N 43°24' E 004°60'0 0.0
2014-Nov-23 05:33N 43°24' E 004°60'0 0.0
2014-Nov-23 04:33N 43°24' E 004°60'0 0.0
2014-Nov-23 03:32N 43°24' E 004°60'0 0.0
2014-Nov-23 02:32N 43°24' E 004°60'0 0.0
2014-Nov-23 01:32N 43°24' E 004°60'0 0.0
2014-Nov-23 00:32N 43°24' E 004°60'0 0.0
2014-Nov-22 23:32N 43°24' E 004°60'0 0.0
2014-Nov-22 22:32N 43°24' E 004°60'0 0.0
2014-Nov-22 21:29N 43°24' E 004°60'0 0.0
2014-Nov-22 20:32N 43°24' E 004°60'0 0.0
2014-Nov-22 19:32N 43°24' E 004°60'0 0.0
2014-Nov-22 18:29N 43°24' E 004°60'0 0.0
2014-Nov-22 17:29N 43°24' E 004°60'0 0.0
2014-Nov-22 16:32N 43°24' E 004°60'0 0.0
2014-Nov-22 15:32N 43°24' E 004°60'0 0.0
2014-Nov-22 14:32N 43°24' E 004°60'0 0.0
2014-Nov-22 13:32N 43°24' E 004°60'0 0.0
2014-Nov-22 12:32N 43°24' E 004°60'0 0.0
2014-Nov-22 11:32N 43°24' E 004°60'0 0.0
2014-Nov-22 10:32N 43°24' E 004°60'0 0.0
2014-Nov-22 09:32N 43°24' E 004°60'0 0.0
2014-Nov-22 08:32N 43°24' E 004°60'0 0.0
2014-Nov-22 07:32N 43°24' E 004°60'0 0.0
2014-Nov-22 06:32N 43°24' E 004°60'0 0.0
2014-Nov-22 05:32N 43°24' E 004°60'0 0.0
2014-Nov-22 04:32N 43°24' E 004°60'0 0.0
2014-Nov-22 03:32N 43°24' E 004°60'0 0.0
2014-Nov-22 02:32N 43°24' E 004°60'0 0.0
2014-Nov-22 01:32N 43°24' E 004°60'0 0.0
2014-Nov-22 00:32N 43°24' E 004°60'2 2.4
2014-Nov-21 23:34N 43°24' E 004°57'0 0.2
2014-Nov-21 22:32N 43°24' E 004°57'0 0.0
2014-Nov-21 21:32N 43°24' E 004°57'0 0.0
2014-Nov-21 20:32N 43°24' E 004°57'0 0.0
2014-Nov-21 19:32N 43°24' E 004°57'0 0.5
2014-Nov-21 18:33N 43°24' E 004°57'0 0.0
2014-Nov-21 17:33N 43°24' E 004°57'0 0.0
2014-Nov-21 16:33N 43°24' E 004°57'0 0.0
2014-Nov-21 15:33N 43°24' E 004°57'0 0.0
2014-Nov-21 14:33N 43°24' E 004°57'2 1.9
2014-Nov-21 13:32N 43°24' E 004°60'0 0.0
2014-Nov-21 12:32N 43°24' E 004°60'0 0.0
2014-Nov-21 11:32N 43°24' E 004°60'0 0.0
2014-Nov-21 10:32N 43°24' E 004°60'0 0.0
2014-Nov-21 09:32N 43°24' E 004°60'0 0.0
2014-Nov-21 08:32N 43°24' E 004°60'0 0.0
2014-Nov-21 07:32N 43°24' E 004°60'0 0.0
2014-Nov-21 06:32N 43°24' E 004°60'0 0.0
2014-Nov-21 05:32N 43°24' E 004°60'0 0.0
2014-Nov-21 04:32N 43°24' E 004°60'0 0.0
2014-Nov-21 03:32N 43°24' E 004°60'0 0.0
2014-Nov-21 02:32N 43°24' E 004°60'0 0.0
2014-Nov-21 01:32N 43°24' E 004°60'0 0.0
2014-Nov-21 00:32N 43°24' E 004°60'0 0.0
2014-Nov-20 23:32N 43°24' E 004°60'0 0.0
2014-Nov-20 22:32N 43°24' E 004°60'0 0.0
2014-Nov-20 21:32N 43°24' E 004°60'0 0.0
2014-Nov-20 20:32N 43°24' E 004°60'0 0.0
2014-Nov-20 19:32N 43°24' E 004°60'4 4.2
2014-Nov-20 18:34N 43°24' E 004°54'2 2.0
2014-Nov-20 17:29N 43°26' E 004°52'0 0.0
2014-Nov-20 16:29N 43°26' E 004°52'0 0.0
2014-Nov-20 15:29N 43°26' E 004°52'0 0.0
2014-Nov-20 14:20N 43°26' E 004°52'0 0.0
2014-Nov-20 13:33N 43°26' E 004°52'6 5.6
2014-Nov-20 12:33N 43°24' E 004°60'0 0.0
2014-Nov-20 11:31N 43°24' E 004°60'0 0.0
2014-Nov-20 10:31N 43°24' E 004°60'0 0.0
2014-Nov-20 09:31N 43°24' E 004°60'0 0.0
2014-Nov-20 08:31N 43°24' E 004°60'0 0.0
2014-Nov-20 07:31N 43°24' E 004°60'0 0.0
2014-Nov-20 06:31N 43°24' E 004°60'0 0.0
2014-Nov-20 05:31N 43°24' E 004°60'0 0.0
2014-Nov-20 04:31N 43°24' E 004°60'0 0.0
2014-Nov-20 03:31N 43°24' E 004°60'0 0.0
2014-Nov-20 02:31N 43°24' E 004°60'0 0.0
2014-Nov-20 01:31N 43°24' E 004°60'0 0.0
2014-Nov-20 00:31N 43°24' E 004°60'0 0.0
2014-Nov-19 23:33N 43°24' E 004°60'0 0.0
2014-Nov-19 22:33N 43°24' E 004°60'0 0.0
2014-Nov-19 21:33N 43°24' E 004°60'0 0.0
2014-Nov-19 20:33N 43°24' E 004°60'0 0.0
2014-Nov-19 19:33N 43°24' E 004°60'0 0.0
2014-Nov-19 18:33N 43°24' E 004°60'0 0.0
2014-Nov-19 17:33N 43°24' E 004°60'0 0.0
2014-Nov-19 16:33N 43°24' E 004°60'0 0.0
2014-Nov-19 15:33N 43°24' E 004°60'0 0.0
2014-Nov-19 14:33N 43°24' E 004°60'0 0.0
2014-Nov-19 13:33N 43°24' E 004°60'0 0.0
2014-Nov-19 12:33N 43°24' E 004°60'0 0.0
2014-Nov-19 11:33N 43°24' E 004°60'0 0.0
2014-Nov-19 10:33N 43°24' E 004°60'0 0.0
2014-Nov-19 09:33N 43°24' E 004°60'0 0.0
2014-Nov-19 08:30N 43°24' E 004°60'0 0.0
2014-Nov-19 07:33N 43°24' E 004°60'0 0.0
2014-Nov-19 06:33N 43°24' E 004°60'0 0.0
2014-Nov-19 05:33N 43°24' E 004°60'0 0.0
2014-Nov-19 04:33N 43°24' E 004°60'0 0.0
2014-Nov-19 03:33N 43°24' E 004°60'0 0.0
2014-Nov-19 02:33N 43°24' E 004°60'0 0.0
2014-Nov-19 01:33N 43°24' E 004°60'0 0.0
2014-Nov-19 00:33N 43°24' E 004°60'0 0.0
2014-Nov-18 23:33N 43°24' E 004°60'0 0.0
2014-Nov-18 22:33N 43°24' E 004°60'0 0.0
2014-Nov-18 21:33N 43°24' E 004°60'1 0.5
2014-Nov-18 20:34N 43°24' E 004°59'2 1.9
2014-Nov-18 19:33N 43°24' E 004°57'0 0.0
2014-Nov-18 18:30N 43°24' E 004°57'2 2.5
2014-Nov-18 17:33N 43°22' E 004°56'0 0.0
2014-Nov-18 16:33N 43°22' E 004°56'0 0.0
2014-Nov-18 15:33N 43°22' E 004°56'0 0.0
2014-Nov-18 14:33N 43°22' E 004°56'0 0.0
2014-Nov-18 13:34N 43°22' E 004°56'4 3.4
2014-Nov-18 12:31N 43°24' E 004°60'0 0.0
2014-Nov-18 11:28N 43°24' E 004°60'0 0.0
2014-Nov-18 10:31N 43°24' E 004°60'0 0.0
2014-Nov-18 09:31N 43°24' E 004°60'0 0.0
2014-Nov-18 08:31N 43°24' E 004°60'0 0.0
2014-Nov-18 07:32N 43°24' E 004°60'0 0.0
2014-Nov-18 06:32N 43°24' E 004°60'0 0.0
2014-Nov-18 05:32N 43°24' E 004°60'0 0.0
2014-Nov-18 04:33N 43°24' E 004°60'0 0.0
2014-Nov-18 03:33N 43°24' E 004°60'0 0.0
2014-Nov-18 02:33N 43°24' E 004°60'0 0.0
2014-Nov-18 01:33N 43°24' E 004°60'0 0.0
2014-Nov-18 00:33N 43°24' E 004°60'  

Dump ship's entire track history